Time;durP1;ratioP1;P1;durP2;ratioP2;P2;SDS_P1;SDS_P2;PMS_P1;PMS_P2;Temp;Humidity;BMP_temperature;BMP_pressure;BME280_temperature;BME280_humidity;BME280_pressure;Samples;Min_cycle;Max_cycle;Signal;HPM_P1;HPM_P2
2024/03/28 00:02:07;;;;;;;9.05;1.52;;;;;;;;;;5042447;28;20071;-74
2024/03/28 00:04:36;;;;;;;;;;;;;;;;;;5043268;28;20423;-74
2024/03/28 00:07:05;;;;;;;4.57;1.42;;;;;;;;;;5042568;28;19929;-73
2024/03/28 00:09:33;;;;;;;5.93;1.30;;;;;;;;;;5042091;28;20416;-74
2024/03/28 00:12:01;;;;;;;9.23;1.70;;;;;;;;;;5025813;28;20072;-74
2024/03/28 00:14:30;;;;;;;7.55;1.58;;;;;;;;;;5025360;28;20067;-74
2024/03/28 00:17:00;;;;;;;8.50;1.65;;;;;;;;;;5040461;28;20045;-75
2024/03/28 00:19:28;;;;;;;5.65;1.30;;;;;;;;;;5041965;28;20052;-74
2024/03/28 00:21:57;;;;;;;4.38;1.45;;;;;;;;;;5014040;28;20052;-74
2024/03/28 00:24:25;;;;;;;8.82;1.40;;;;;;;;;;5021221;28;20084;-75
2024/03/28 00:26:54;;;;;;;5.53;1.50;;;;;;;;;;5022330;28;20528;-74
2024/03/28 00:29:23;;;;;;;3.92;1.48;;;;;;;;;;5021579;28;20049;-77
2024/03/28 00:31:51;;;;;;;5.40;1.45;;;;;;;;;;5020951;28;20048;-74
2024/03/28 00:34:19;;;;;;;7.70;1.60;;;;;;;;;;5021737;28;20406;-75
2024/03/28 00:36:48;;;;;;;6.25;1.70;;;;;;;;;;5022380;28;20050;-71
2024/03/28 00:39:16;;;;;;;10.07;1.80;;;;;;;;;;5022016;28;20041;-73
2024/03/28 00:41:45;;;;;;;7.28;1.92;;;;;;;;;;5020622;28;20088;-75
2024/03/28 00:44:13;;;;;;;5.43;1.52;;;;;;;;;;5020885;28;20041;-73
2024/03/28 00:46:41;;;;;;;3.53;1.42;;;;;;;;;;5021768;28;20049;-73
2024/03/28 00:49:10;;;;;;;11.00;1.98;;;;;;;;;;5021777;28;20489;-74
2024/03/28 00:51:39;;;;;;;10.38;1.65;;;;;;;;;;5022015;28;20041;-74
2024/03/28 00:54:07;;;;;;;6.38;1.45;;;;;;;;;;5021753;28;20107;-74
2024/03/28 00:56:36;;;;;;;4.15;1.40;;;;;;;;;;5021431;28;20052;-73
2024/03/28 00:59:04;;;;;;;7.85;1.60;;;;;;;;;;5021790;28;20209;-75
2024/03/28 01:01:32;;;;;;;4.82;1.75;;;;;;;;;;5022146;28;20060;-72
2024/03/28 01:04:01;;;;;;;8.48;1.73;;;;;;;;;;5022209;28;20052;-74
2024/03/28 01:06:29;;;;;;;5.75;1.75;;;;;;;;;;5021791;28;20523;-73
2024/03/28 01:08:58;;;;;;;6.90;1.73;;;;;;;;;;5021168;28;20492;-73
2024/03/28 01:11:26;;;;;;;4.35;1.50;;;;;;;;;;5021950;28;20389;-74
2024/03/28 01:13:55;;;;;;;9.55;1.80;;;;;;;;;;5005211;28;20053;-73
2024/03/28 01:16:23;;;;;;;6.25;1.70;;;;;;;;;;5005241;28;20054;-72
2024/03/28 01:18:52;;;;;;;8.13;1.98;;;;;;;;;;5021845;28;20532;-76
2024/03/28 01:21:21;;;;;;;3.47;1.60;;;;;;;;;;5021377;28;20060;-76
2024/03/28 01:23:49;;;;;;;3.90;1.83;;;;;;;;;;5021090;28;20045;-74
2024/03/28 01:26:18;;;;;;;9.02;2.95;;;;;;;;;;5021757;28;20049;-74
2024/03/28 01:28:46;;;;;;;6.38;1.95;;;;;;;;;;5021410;28;20041;-73
2024/03/28 01:31:15;;;;;;;6.60;1.75;;;;;;;;;;5022131;28;20053;-75
2024/03/28 01:33:43;;;;;;;5.05;2.13;;;;;;;;;;5021412;28;20120;-74
2024/03/28 01:36:11;;;;;;;5.82;2.03;;;;;;;;;;5021806;28;20048;-74
2024/03/28 01:38:40;;;;;;;5.30;2.00;;;;;;;;;;5020951;28;20029;-74
2024/03/28 01:41:09;;;;;;;8.40;2.45;;;;;;;;;;5020915;28;20049;-75
2024/03/28 01:43:39;;;;;;;6.53;2.20;;;;;;;;;;5022288;28;20060;-75
2024/03/28 01:46:08;;;;;;;8.05;2.28;;;;;;;;;;5021346;28;20208;-73
2024/03/28 01:48:37;;;;;;;6.93;2.30;;;;;;;;;;5020692;28;20052;-74
2024/03/28 01:51:05;;;;;;;;;;;;;;;;;;5021631;28;20060;-73
2024/03/28 01:53:35;;;;;;;6.75;1.85;;;;;;;;;;5020792;28;19925;-76
2024/03/28 01:56:05;;;;;;;3.72;2.03;;;;;;;;;;5020632;28;20057;-73
2024/03/28 01:58:33;;;;;;;6.40;2.38;;;;;;;;;;5020593;28;20527;-74
2024/03/28 02:01:03;;;;;;;13.88;2.47;;;;;;;;;;5021321;28;20058;-75
2024/03/28 02:03:32;;;;;;;6.28;2.13;;;;;;;;;;5004548;28;20069;-76
2024/03/28 02:06:00;;;;;;;7.25;2.20;;;;;;;;;;5020735;28;20041;-72
2024/03/28 02:08:29;;;;;;;6.20;2.05;;;;;;;;;;5020992;28;20053;-76
2024/03/28 02:10:59;;;;;;;7.00;2.13;;;;;;;;;;5003894;28;20512;-74
2024/03/28 02:13:27;;;;;;;5.95;2.13;;;;;;;;;;5021087;28;20045;-75
2024/03/28 02:15:56;;;;;;;6.35;1.98;;;;;;;;;;5020388;28;20048;-73
2024/03/28 02:18:24;;;;;;;7.80;2.22;;;;;;;;;;5020588;28;20057;-74
2024/03/28 02:20:54;;;;;;;8.80;2.30;;;;;;;;;;5020903;28;20041;-73
2024/03/28 02:23:22;;;;;;;;;;;;;;;;;;5021192;28;20408;-72
2024/03/28 02:25:50;;;;;;;4.43;2.08;;;;;;;;;;5020848;28;20434;-75
2024/03/28 02:28:18;;;;;;;4.60;2.05;;;;;;;;;;5021127;28;20045;-75
2024/03/28 02:30:47;;;;;;;7.50;2.30;;;;;;;;;;5021185;28;20057;-73
2024/03/28 02:33:15;;;;;;;3.70;1.83;;;;;;;;;;5020867;28;20044;-75
2024/03/28 02:35:43;;;;;;;6.28;2.47;;;;;;;;;;5020628;28;20049;-74
2024/03/28 02:38:13;;;;;;;5.68;2.13;;;;;;;;;;5020031;28;20056;-75
2024/03/28 02:40:41;;;;;;;6.40;2.22;;;;;;;;;;5019912;28;20057;-74
2024/03/28 02:43:09;;;;;;;8.02;2.60;;;;;;;;;;5020117;28;20054;-73
2024/03/28 02:45:38;;;;;;;4.80;2.28;;;;;;;;;;5020196;28;20425;-75
2024/03/28 02:48:08;;;;;;;7.38;2.50;;;;;;;;;;5020146;28;20413;-73
2024/03/28 02:50:37;;;;;;;6.82;2.40;;;;;;;;;;5020385;28;20045;-75
2024/03/28 02:53:05;;;;;;;12.27;2.63;;;;;;;;;;5020395;28;20045;-72
2024/03/28 02:55:34;;;;;;;4.65;2.40;;;;;;;;;;5007688;28;20440;-72
2024/03/28 02:58:02;;;;;;;6.53;2.55;;;;;;;;;;5023692;28;20038;-74
2024/03/28 03:00:31;;;;;;;5.95;2.35;;;;;;;;;;5023852;28;20038;-75
2024/03/28 03:03:01;;;;;;;6.43;2.10;;;;;;;;;;5023913;28;20045;-74
2024/03/28 03:05:30;;;;;;;4.97;2.42;;;;;;;;;;5023765;28;20037;-75
2024/03/28 03:08:01;;;;;;;3.10;1.70;;;;;;;;;;5023097;28;20512;-72
2024/03/28 03:10:30;;;;;;;7.03;2.17;;;;;;;;;;5023277;28;20507;-76
2024/03/28 03:12:58;;;;;;;3.47;1.90;;;;;;;;;;5022945;28;20061;-73
2024/03/28 03:15:27;;;;;;;4.32;2.22;;;;;;;;;;5023552;28;20056;-75
2024/03/28 03:17:56;;;;;;;9.90;2.60;;;;;;;;;;5023439;28;20053;-74
2024/03/28 03:20:25;;;;;;;5.80;2.20;;;;;;;;;;5023646;28;20440;-75
2024/03/28 03:23:04;;;;;;;6.53;1.98;;;;;;;;;;5023553;28;20037;-72
2024/03/28 03:25:49;;;;;;;8.40;2.42;;;;;;;;;;5022860;28;20049;-73
2024/03/28 03:36:39;;;;;;;5.88;2.38;;;;;;;;;;5028937;28;20044;-73
2024/03/28 03:39:08;;;;;;;5.20;2.22;;;;;;;;;;5035426;28;20045;-74
2024/03/28 03:41:37;;;;;;;3.92;1.90;;;;;;;;;;5036105;28;20041;-73
2024/03/28 03:44:06;;;;;;;9.75;2.53;;;;;;;;;;5034724;28;20842;-73
2024/03/28 03:46:35;;;;;;;3.95;1.73;;;;;;;;;;5023167;28;20057;-75
2024/03/28 03:49:04;;;;;;;3.70;1.80;;;;;;;;;;5007206;28;20508;-75
2024/03/28 03:51:33;;;;;;;4.57;1.73;;;;;;;;;;5022862;28;20052;-75
2024/03/28 03:54:01;;;;;;;5.03;2.00;;;;;;;;;;5022771;28;20511;-73
2024/03/28 03:56:30;;;;;;;4.78;2.33;;;;;;;;;;5023143;28;20041;-73
2024/03/28 03:58:59;;;;;;;5.95;2.00;;;;;;;;;;5006349;28;20053;-75
2024/03/28 04:01:27;;;;;;;4.82;2.33;;;;;;;;;;5006851;28;20068;-76
2024/03/28 04:03:55;;;;;;;5.32;2.33;;;;;;;;;;5022523;28;20041;-73
2024/03/28 04:06:24;;;;;;;6.68;2.03;;;;;;;;;;5022537;28;20048;-75
2024/03/28 04:08:53;;;;;;;5.13;2.30;;;;;;;;;;5023007;28;20052;-74
2024/03/28 04:11:21;;;;;;;4.93;2.00;;;;;;;;;;5022336;28;20604;-73
2024/03/28 04:13:49;;;;;;;4.20;1.80;;;;;;;;;;5022813;28;20041;-73
2024/03/28 04:16:19;;;;;;;3.13;1.70;;;;;;;;;;5022517;28;20041;-76
2024/03/28 04:18:47;;;;;;;4.78;2.20;;;;;;;;;;5021877;28;20440;-76
2024/03/28 04:21:16;;;;;;;3.03;1.92;;;;;;;;;;5005886;28;20049;-75
2024/03/28 04:23:44;;;;;;;6.78;2.13;;;;;;;;;;5022866;28;20045;-74
2024/03/28 04:26:13;;;;;;;4.65;2.03;;;;;;;;;;5032204;28;20045;-72
2024/03/28 04:28:42;;;;;;;6.18;2.13;;;;;;;;;;5033373;28;20052;-72
2024/03/28 04:31:10;;;;;;;4.25;1.90;;;;;;;;;;5026840;28;20045;-74
2024/03/28 04:33:38;;;;;;;5.80;2.30;;;;;;;;;;5021765;28;20056;-74
2024/03/28 04:36:07;;;;;;;7.00;2.38;;;;;;;;;;5021840;28;20045;-75
2024/03/28 04:38:37;;;;;;;10.13;2.47;;;;;;;;;;5022517;28;20049;-74
2024/03/28 04:41:06;;;;;;;4.05;2.22;;;;;;;;;;5022724;28;20045;-74
2024/03/28 04:43:35;;;;;;;6.90;2.35;;;;;;;;;;5022382;28;20042;-75
2024/03/28 04:46:04;;;;;;;7.45;2.90;;;;;;;;;;5022296;28;20045;-73
2024/03/28 04:48:32;;;;;;;6.63;2.70;;;;;;;;;;5021753;28;20065;-73
2024/03/28 04:51:01;;;;;;;3.70;2.17;;;;;;;;;;5021513;28;21064;-74
2024/03/28 04:53:31;;;;;;;7.82;2.67;;;;;;;;;;5022063;28;20053;-74
2024/03/28 04:55:59;;;;;;;5.63;2.60;;;;;;;;;;5021256;28;20765;-75
2024/03/28 04:58:27;;;;;;;4.13;2.20;;;;;;;;;;5005241;28;20037;-76
2024/03/28 05:00:56;;;;;;;5.88;2.35;;;;;;;;;;5021942;28;20053;-74
2024/03/28 05:03:24;;;;;;;4.05;2.13;;;;;;;;;;5021539;28;20606;-74
2024/03/28 05:05:54;;;;;;;3.35;2.10;;;;;;;;;;5021479;28;20484;-73
2024/03/28 05:08:22;;;;;;;6.32;2.22;;;;;;;;;;5021565;28;20719;-74
2024/03/28 05:10:51;;;;;;;2.88;1.90;;;;;;;;;;5021014;28;20045;-76
2024/03/28 05:13:19;;;;;;;4.47;2.28;;;;;;;;;;5004884;28;20053;-74
2024/03/28 05:15:47;;;;;;;5.85;2.35;;;;;;;;;;5020699;28;20037;-75
2024/03/28 05:18:15;;;;;;;13.20;2.35;;;;;;;;;;5022031;28;20053;-74
2024/03/28 05:20:44;;;;;;;8.15;2.20;;;;;;;;;;5020696;28;20071;-75
2024/03/28 05:23:13;;;;;;;11.70;2.80;;;;;;;;;;5020891;28;20045;-75
2024/03/28 05:25:42;;;;;;;;;;;;;;;;;;5021765;28;20038;-75
2024/03/28 05:28:10;;;;;;;7.18;2.13;;;;;;;;;;5020671;28;19932;-75
2024/03/28 05:30:39;;;;;;;11.02;2.70;;;;;;;;;;5021544;28;20052;-73
2024/03/28 05:33:10;;;;;;;4.80;2.38;;;;;;;;;;5021468;28;20049;-77
2024/03/28 05:35:40;;;;;;;7.55;2.53;;;;;;;;;;5021876;28;20045;-73
2024/03/28 05:38:08;;;;;;;7.05;2.40;;;;;;;;;;5021135;28;20041;-75
2024/03/28 05:40:37;;;;;;;7.22;2.42;;;;;;;;;;5020637;28;20060;-74
2024/03/28 05:43:05;;;;;;;6.55;2.15;;;;;;;;;;5020801;28;20060;-76
2024/03/28 05:45:34;;;;;;;5.63;2.33;;;;;;;;;;5020496;28;20754;-75
2024/03/28 05:48:02;;;;;;;6.15;2.15;;;;;;;;;;5021136;28;20046;-75
2024/03/28 05:50:31;;;;;;;4.38;2.40;;;;;;;;;;5020157;28;20417;-76
2024/03/28 05:52:59;;;;;;;5.40;2.28;;;;;;;;;;5020889;28;20037;-76
2024/03/28 05:55:28;;;;;;;7.63;2.25;;;;;;;;;;5020226;28;20064;-75
2024/03/28 05:57:56;;;;;;;3.70;2.15;;;;;;;;;;5020970;28;20049;-75
2024/03/28 06:00:24;;;;;;;5.40;2.10;;;;;;;;;;5020897;28;20064;-76
2024/03/28 06:02:52;;;;;;;4.55;2.05;;;;;;;;;;5020848;28;20054;-76
2024/03/28 06:05:21;;;;;;;5.80;2.33;;;;;;;;;;5020642;28;20045;-73
2024/03/28 06:07:50;;;;;;;7.03;2.10;;;;;;;;;;5003971;28;20496;-74
2024/03/28 06:10:18;;;;;;;3.97;2.05;;;;;;;;;;5020834;28;20045;-76
2024/03/28 06:12:47;;;;;;;6.55;2.25;;;;;;;;;;5020656;28;20053;-74
2024/03/28 06:15:15;;;;;;;4.65;1.75;;;;;;;;;;5020415;28;20413;-75
2024/03/28 06:17:43;;;;;;;5.50;2.00;;;;;;;;;;5004008;28;20054;-75
2024/03/28 06:20:12;;;;;;;12.00;2.10;;;;;;;;;;5020232;28;20407;-76
2024/03/28 06:22:41;;;;;;;7.50;2.45;;;;;;;;;;5020938;28;20041;-74
2024/03/28 06:25:10;;;;;;;5.50;2.22;;;;;;;;;;5020888;28;20045;-74
2024/03/28 06:27:38;;;;;;;3.67;2.00;;;;;;;;;;5020969;28;20046;-77
2024/03/28 06:30:07;;;;;;;5.50;2.00;;;;;;;;;;5023815;28;20046;-75
2024/03/28 06:32:35;;;;;;;2.85;2.20;;;;;;;;;;5023711;28;20064;-74
2024/03/28 06:35:04;;;;;;;4.65;2.10;;;;;;;;;;5023502;28;20045;-74
2024/03/28 06:37:33;;;;;;;3.15;1.88;;;;;;;;;;4991701;28;20817;-73
2024/03/28 06:40:01;;;;;;;3.70;1.98;;;;;;;;;;5023821;28;20056;-74
2024/03/28 06:42:29;;;;;;;2.65;1.77;;;;;;;;;;5023991;28;20064;-75
2024/03/28 06:44:58;;;;;;;6.25;1.90;;;;;;;;;;5023904;28;20053;-74
2024/03/28 06:47:26;;;;;;;5.75;2.10;;;;;;;;;;5023563;28;20037;-75
2024/03/28 06:49:55;;;;;;;4.65;1.77;;;;;;;;;;5023700;28;20057;-74
2024/03/28 06:52:23;;;;;;;2.67;1.85;;;;;;;;;;5023726;28;20046;-76
2024/03/28 06:54:53;;;;;;;7.50;2.17;;;;;;;;;;5023804;28;20432;-74
2024/03/28 06:57:21;;;;;;;4.75;1.83;;;;;;;;;;5023689;28;20049;-72
2024/03/28 06:59:52;;;;;;;3.70;1.90;;;;;;;;;;5007541;28;20587;-73
2024/03/28 07:02:21;;;;;;;3.85;2.03;;;;;;;;;;5023670;28;20053;-73
2024/03/28 07:04:51;;;;;;;6.30;1.92;;;;;;;;;;5023596;28;20523;-74
2024/03/28 07:07:19;;;;;;;3.45;2.10;;;;;;;;;;5024022;28;20507;-71
2024/03/28 07:09:47;;;;;;;5.13;2.15;;;;;;;;;;5024379;28;20057;-73
2024/03/28 07:12:16;;;;;;;4.43;2.45;;;;;;;;;;5023588;28;20049;-73
2024/03/28 07:14:44;;;;;;;5.55;2.47;;;;;;;;;;5023271;28;20420;-74
2024/03/28 07:17:13;;;;;;;4.72;2.55;;;;;;;;;;5023444;28;20436;-71
2024/03/28 07:19:42;;;;;;;4.68;2.47;;;;;;;;;;5007206;28;20425;-75
2024/03/28 07:22:11;;;;;;;4.45;2.55;;;;;;;;;;5023496;28;20037;-72
2024/03/28 07:24:39;;;;;;;5.70;2.50;;;;;;;;;;5023073;28;20049;-74
2024/03/28 07:27:08;;;;;;;4.75;2.40;;;;;;;;;;5022720;28;20056;-73
2024/03/28 07:29:36;;;;;;;7.10;2.88;;;;;;;;;;5023065;28;20056;-73
2024/03/28 07:32:05;;;;;;;6.40;2.55;;;;;;;;;;5022976;28;20037;-75
2024/03/28 07:34:34;;;;;;;7.47;2.58;;;;;;;;;;5023400;28;20041;-73
2024/03/28 07:37:03;;;;;;;7.45;2.55;;;;;;;;;;5022866;28;20045;-74
2024/03/28 07:39:31;;;;;;;6.10;2.85;;;;;;;;;;5022212;28;20061;-72
2024/03/28 07:42:00;;;;;;;8.07;2.22;;;;;;;;;;5022767;28;20052;-72
2024/03/28 07:44:29;;;;;;;4.57;2.45;;;;;;;;;;5022895;28;20045;-75
2024/03/28 07:46:57;;;;;;;4.50;2.17;;;;;;;;;;5022838;28;20049;-74
2024/03/28 07:49:26;;;;;;;3.70;2.10;;;;;;;;;;5023604;28;20045;-73
2024/03/28 07:51:54;;;;;;;3.58;2.47;;;;;;;;;;5023358;28;20050;-74
2024/03/28 07:54:22;;;;;;;8.05;2.60;;;;;;;;;;5022191;28;20060;-74
2024/03/28 07:56:51;;;;;;;3.80;2.60;;;;;;;;;;5022396;28;20626;-72
2024/03/28 07:59:20;;;;;;;3.92;2.33;;;;;;;;;;5022124;28;20048;-71
2024/03/28 08:01:49;;;;;;;3.03;2.10;;;;;;;;;;5022736;28;20042;-72
2024/03/28 08:04:18;;;;;;;5.03;2.38;;;;;;;;;;5022083;28;20049;-71
2024/03/28 08:06:47;;;;;;;4.00;2.78;;;;;;;;;;5022347;28;20053;-74
2024/03/28 08:09:15;;;;;;;;;;;;;;;;;;5006384;28;20065;-74
2024/03/28 08:11:43;;;;;;;3.65;2.50;;;;;;;;;;5022568;28;19925;-73
2024/03/28 08:14:13;;;;;;;6.80;2.63;;;;;;;;;;5022256;28;20041;-75
2024/03/28 08:16:42;;;;;;;4.93;2.80;;;;;;;;;;5006642;28;20053;-73
2024/03/28 08:19:10;;;;;;;4.95;2.67;;;;;;;;;;5021978;28;20424;-74
2024/03/28 08:21:39;;;;;;;4.60;2.45;;;;;;;;;;5022802;28;20705;-75
2024/03/28 08:24:07;;;;;;;4.13;2.65;;;;;;;;;;5022226;28;20056;-73
2024/03/28 08:26:37;;;;;;;8.10;2.80;;;;;;;;;;5021865;28;20056;-72
2024/03/28 08:29:07;;;;;;;4.38;2.70;;;;;;;;;;5022199;28;20053;-73
2024/03/28 08:31:36;;;;;;;6.60;2.85;;;;;;;;;;5021561;28;20045;-73
2024/03/28 08:34:05;;;;;;;3.90;2.50;;;;;;;;;;5022489;28;20041;-74
2024/03/28 08:36:34;;;;;;;3.83;2.80;;;;;;;;;;5022271;28;20052;-73
2024/03/28 08:39:03;;;;;;;6.97;3.47;;;;;;;;;;5021809;28;20500;-73
2024/03/28 08:41:32;;;;;;;6.07;2.63;;;;;;;;;;5021805;28;20046;-73
2024/03/28 08:44:01;;;;;;;7.13;3.00;;;;;;;;;;5021901;28;20046;-74
2024/03/28 08:46:30;;;;;;;5.65;2.80;;;;;;;;;;5021315;28;20049;-75
2024/03/28 08:48:58;;;;;;;6.78;2.60;;;;;;;;;;5021340;28;20053;-73
2024/03/28 08:51:26;;;;;;;3.50;2.50;;;;;;;;;;5020396;28;20041;-75
2024/03/28 08:53:57;;;;;;;7.72;2.92;;;;;;;;;;5005177;28;20060;-74
2024/03/28 08:56:26;;;;;;;7.85;2.67;;;;;;;;;;5021226;28;20049;-72
2024/03/28 08:58:57;;;;;;;4.45;2.75;;;;;;;;;;5021362;28;20045;-73
2024/03/28 09:01:26;;;;;;;3.72;2.53;;;;;;;;;;5005107;28;20045;-73
2024/03/28 09:03:54;;;;;;;4.25;2.97;;;;;;;;;;5021221;28;20046;-77
2024/03/28 09:06:23;;;;;;;4.10;2.47;;;;;;;;;;5005480;28;20057;-73
2024/03/28 09:08:51;;;;;;;2.50;1.95;;;;;;;;;;5021961;28;20064;-74
2024/03/28 09:11:20;;;;;;;7.97;2.63;;;;;;;;;;5021624;28;20533;-73
2024/03/28 09:13:48;;;;;;;4.20;2.53;;;;;;;;;;5021313;28;20046;-74
2024/03/28 09:16:17;;;;;;;5.65;2.67;;;;;;;;;;5021841;28;20048;-75
2024/03/28 09:18:45;;;;;;;5.13;3.03;;;;;;;;;;5021104;28;20045;-74
2024/03/28 09:21:15;;;;;;;4.35;2.70;;;;;;;;;;5021033;28;20500;-74
2024/03/28 09:23:44;;;;;;;5.03;2.58;;;;;;;;;;5020779;28;20049;-73
2024/03/28 09:26:13;;;;;;;3.47;2.35;;;;;;;;;;5020760;28;20064;-74
2024/03/28 09:28:43;;;;;;;7.55;2.83;;;;;;;;;;5021086;28;20044;-74
2024/03/28 09:31:13;;;;;;;4.50;2.47;;;;;;;;;;5020917;28;20048;-76
2024/03/28 09:33:42;;;;;;;5.07;2.63;;;;;;;;;;5020951;28;20496;-74
2024/03/28 09:36:12;;;;;;;;;;;;;;;;;;5021876;28;20053;-75
2024/03/28 09:38:44;;;;;;;4.47;2.17;;;;;;;;;;5021173;28;19932;-74
2024/03/28 09:41:29;;;;;;;4.43;2.53;;;;;;;;;;5020854;28;20052;-74
2024/03/28 09:44:03;;;;;;;6.85;3.03;;;;;;;;;;5021044;28;20737;-76
2024/03/28 09:46:34;;;;;;;10.88;3.50;;;;;;;;;;5020790;28;20046;-74
2024/03/28 09:49:06;;;;;;;9.05;3.05;;;;;;;;;;5004733;28;20060;-72
2024/03/28 09:51:39;;;;;;;7.95;3.17;;;;;;;;;;5020765;28;20052;-73
2024/03/28 09:54:08;;;;;;;12.75;3.03;;;;;;;;;;5004258;28;20053;-72
2024/03/28 09:56:37;;;;;;;6.47;3.38;;;;;;;;;;5020934;28;20041;-75
2024/03/28 09:59:06;;;;;;;17.60;3.83;;;;;;;;;;5004609;28;20061;-74
2024/03/28 10:01:36;;;;;;;8.05;3.10;;;;;;;;;;5026299;28;20049;-72
2024/03/28 10:04:22;;;;;;;11.80;3.40;;;;;;;;;;5039998;28;20060;-72
2024/03/28 10:06:54;;;;;;;12.25;3.17;;;;;;;;;;5039102;28;20056;-74
2024/03/28 10:09:23;;;;;;;11.25;3.17;;;;;;;;;;5033842;28;20159;-73
2024/03/28 10:11:53;;;;;;;5.10;2.83;;;;;;;;;;5024663;28;20046;-75
2024/03/28 10:14:22;;;;;;;8.18;3.00;;;;;;;;;;5024286;28;20440;-76
2024/03/28 10:17:01;;;;;;;4.60;2.88;;;;;;;;;;5024744;28;20045;-74
2024/03/28 10:19:31;;;;;;;8.63;3.03;;;;;;;;;;5008557;28;20052;-73
2024/03/28 10:22:11;;;;;;;6.93;3.00;;;;;;;;;;5024297;28;20041;-75
2024/03/28 10:24:46;;;;;;;11.30;3.80;;;;;;;;;;5024655;28;20053;-75
2024/03/28 10:27:15;;;;;;;11.90;3.67;;;;;;;;;;5024123;28;20053;-77
2024/03/28 10:29:53;;;;;;;11.13;3.92;;;;;;;;;;5024844;28;20045;-71
2024/03/28 10:32:22;;;;;;;6.18;3.92;;;;;;;;;;5024189;28;20050;-73
2024/03/28 10:34:52;;;;;;;11.52;3.38;;;;;;;;;;5024291;28;20037;-75
2024/03/28 10:37:23;;;;;;;6.45;2.80;;;;;;;;;;5024147;28;20041;-76
2024/03/28 10:39:52;;;;;;;10.65;3.30;;;;;;;;;;5024203;28;20066;-75
2024/03/28 10:42:21;;;;;;;16.00;3.17;;;;;;;;;;5023927;28;20393;-75
2024/03/28 10:44:49;;;;;;;10.30;3.80;;;;;;;;;;5026009;28;20057;-73
2024/03/28 10:47:19;;;;;;;12.10;3.80;;;;;;;;;;5037286;28;20056;-76
2024/03/28 10:50:01;;;;;;;9.13;3.45;;;;;;;;;;5037210;28;20052;-74
2024/03/28 10:52:42;;;;;;;17.10;3.78;;;;;;;;;;5023895;28;20045;-75
2024/03/28 10:55:15;;;;;;;10.30;3.10;;;;;;;;;;5023311;28;20062;-76
2024/03/28 10:57:47;;;;;;;7.90;3.28;;;;;;;;;;5023326;28;20049;-74
2024/03/28 11:00:16;;;;;;;10.40;3.67;;;;;;;;;;5023628;28;20045;-74
2024/03/28 11:02:45;;;;;;;7.90;2.92;;;;;;;;;;5023308;28;20060;-74
2024/03/28 11:05:15;;;;;;;5.63;2.85;;;;;;;;;;5023419;28;20068;-75
2024/03/28 11:07:43;;;;;;;;;;;;;;;;;;5023905;28;20045;-80
2024/03/28 11:10:12;;;;;;;17.48;3.05;;;;;;;;;;5023694;28;19962;-75
2024/03/28 11:12:41;;;;;;;11.93;2.95;;;;;;;;;;5022997;28;20499;-73
2024/03/28 11:15:23;;;;;;;10.20;2.95;;;;;;;;;;5021811;28;20046;-75
2024/03/28 11:17:51;;;;;;;9.38;2.90;;;;;;;;;;5023373;28;20054;-76
2024/03/28 11:20:21;;;;;;;8.95;2.95;;;;;;;;;;5022574;28;20049;-74
2024/03/28 11:22:50;;;;;;;15.75;2.83;;;;;;;;;;5007873;28;20412;-76
2024/03/28 11:25:29;;;;;;;14.15;2.88;;;;;;;;;;5023488;28;20038;-74
2024/03/28 11:28:12;;;;;;;13.98;3.75;;;;;;;;;;5022982;28;20072;-75
2024/03/28 11:30:52;;;;;;;6.80;2.38;;;;;;;;;;5022587;28;20521;-74
2024/03/28 11:33:32;;;;;;;14.02;2.50;;;;;;;;;;5021711;28;20053;-76
2024/03/28 11:36:03;;;;;;;14.98;2.50;;;;;;;;;;5021363;28;20535;-76
2024/03/28 11:38:35;;;;;;;8.27;2.60;;;;;;;;;;5021712;28;20069;-76
2024/03/28 11:41:07;;;;;;;13.45;3.45;;;;;;;;;;5005852;28;20215;-77
2024/03/28 11:43:36;;;;;;;9.15;2.28;;;;;;;;;;5023115;28;20052;-77
2024/03/28 11:46:04;;;;;;;6.57;2.15;;;;;;;;;;5022574;28;20550;-76
2024/03/28 11:48:35;;;;;;;5.60;2.40;;;;;;;;;;5022730;28;20045;-74
2024/03/28 11:51:05;;;;;;;13.10;4.97;;;;;;;;;;5023139;28;20633;-76
2024/03/28 11:53:34;;;;;;;7.60;2.22;;;;;;;;;;5022223;28;20041;-77
2024/03/28 11:56:03;;;;;;;15.52;2.83;;;;;;;;;;5022904;28;20053;-75
2024/03/28 11:58:31;;;;;;;8.88;2.70;;;;;;;;;;5022414;28;20041;-76
2024/03/28 12:01:04;;;;;;;4.97;2.15;;;;;;;;;;5022620;28;20064;-75
2024/03/28 12:03:33;;;;;;;6.15;2.45;;;;;;;;;;5022404;28;20042;-76
2024/03/28 12:06:01;;;;;;;9.00;3.55;;;;;;;;;;5005702;28;20041;-73
2024/03/28 12:08:31;;;;;;;6.40;2.40;;;;;;;;;;5022457;28;20403;-74
2024/03/28 12:11:04;;;;;;;11.77;2.67;;;;;;;;;;5006406;28;20077;-77
2024/03/28 12:13:35;;;;;;;9.95;4.85;;;;;;;;;;5006154;28;20515;-78
2024/03/28 12:16:09;;;;;;;7.38;2.40;;;;;;;;;;5023115;28;20045;-74
2024/03/28 12:18:41;;;;;;;7.90;2.47;;;;;;;;;;5022603;28;20056;-76
2024/03/28 12:21:11;;;;;;;5.07;2.92;;;;;;;;;;5005837;28;20539;-76
2024/03/28 12:23:39;;;;;;;5.45;2.70;;;;;;;;;;5021935;28;20048;-75
2024/03/28 12:26:17;;;;;;;;;;;;;;;;;;5022474;28;20045;-74
2024/03/28 12:28:47;;;;;;;8.50;2.53;;;;;;;;;;5021913;28;19931;-77
2024/03/28 12:31:23;;;;;;;7.28;2.33;;;;;;;;;;5021662;28;20045;-76
2024/03/28 12:33:51;;;;;;;4.40;2.75;;;;;;;;;;5021959;28;20049;-76
2024/03/28 12:36:21;;;;;;;4.53;2.25;;;;;;;;;;5021990;28;20050;-76
2024/03/28 12:38:52;;;;;;;7.28;2.40;;;;;;;;;;5021584;28;20053;-74
2024/03/28 12:41:23;;;;;;;3.75;2.00;;;;;;;;;;5022429;28;20053;-76
2024/03/28 12:43:56;;;;;;;7.40;1.92;;;;;;;;;;5021909;28;20493;-76
2024/03/28 12:46:25;;;;;;;10.27;2.00;;;;;;;;;;5021801;28;20056;-76
2024/03/28 12:48:53;;;;;;;8.60;1.85;;;;;;;;;;5021747;28;20045;-74
2024/03/28 12:51:22;;;;;;;6.20;2.03;;;;;;;;;;5021480;28;20053;-75
2024/03/28 12:53:51;;;;;;;3.40;1.88;;;;;;;;;;5020724;28;20781;-79
2024/03/28 12:56:19;;;;;;;6.47;2.30;;;;;;;;;;5021511;28;20053;-75
2024/03/28 12:58:48;;;;;;;4.55;1.98;;;;;;;;;;5021460;28;20496;-76
2024/03/28 13:01:17;;;;;;;4.60;1.88;;;;;;;;;;5005121;28;20508;-77
2024/03/28 13:03:45;;;;;;;6.07;1.80;;;;;;;;;;5021566;28;20048;-76
2024/03/28 13:06:14;;;;;;;8.75;2.00;;;;;;;;;;5021559;28;20045;-76
2024/03/28 13:08:42;;;;;;;5.43;1.83;;;;;;;;;;5021031;28;20404;-74
2024/03/28 13:11:12;;;;;;;4.32;1.83;;;;;;;;;;5021025;28;20504;-74
2024/03/28 13:13:41;;;;;;;5.95;1.75;;;;;;;;;;5021222;28;20049;-77
2024/03/28 13:16:11;;;;;;;8.45;2.35;;;;;;;;;;5020799;28;20488;-76
2024/03/28 13:18:39;;;;;;;4.20;1.58;;;;;;;;;;5022061;28;20053;-76
2024/03/28 13:21:07;;;;;;;4.80;1.77;;;;;;;;;;5020540;28;20073;-75
2024/03/28 13:23:36;;;;;;;2.88;1.30;;;;;;;;;;5021389;28;20060;-75
2024/03/28 13:26:05;;;;;;;3.40;1.70;;;;;;;;;;5021829;28;20056;-74
2024/03/28 13:28:34;;;;;;;6.32;1.60;;;;;;;;;;5005551;28;20068;-75
2024/03/28 13:31:04;;;;;;;4.22;1.60;;;;;;;;;;5022123;28;20061;-74
2024/03/28 13:33:32;;;;;;;3.92;1.45;;;;;;;;;;5023311;28;20409;-74
2024/03/28 13:36:04;;;;;;;6.63;1.73;;;;;;;;;;5021259;28;20053;-80
2024/03/28 13:38:33;;;;;;;3.40;1.40;;;;;;;;;;5020990;28;20056;-77
2024/03/28 13:41:01;;;;;;;5.95;1.85;;;;;;;;;;5004494;28;20053;-79
2024/03/28 13:43:29;;;;;;;2.70;2.13;;;;;;;;;;5005251;28;20053;-76
2024/03/28 13:45:58;;;;;;;11.85;2.10;;;;;;;;;;5021009;28;20397;-76
2024/03/28 13:48:32;;;;;;;;;;;;;;;;;;5021174;28;20420;-74
2024/03/28 13:51:00;;;;;;;2.13;1.42;;;;;;;;;;5020958;28;19925;-76
2024/03/28 13:53:31;;;;;;;2.67;1.33;;;;;;;;;;5019919;28;20053;-76
2024/03/28 13:55:59;;;;;;;3.22;1.48;;;;;;;;;;5003702;28;20068;-74
2024/03/28 13:58:28;;;;;;;6.18;1.75;;;;;;;;;;5020614;28;20753;-74
2024/03/28 14:00:58;;;;;;;4.00;1.52;;;;;;;;;;5020865;28;20045;-76
2024/03/28 14:03:26;;;;;;;4.80;1.55;;;;;;;;;;5020715;28;20045;-76
2024/03/28 14:06:04;;;;;;;3.00;1.45;;;;;;;;;;5004363;28;20053;-77
2024/03/28 14:08:33;;;;;;;7.20;1.80;;;;;;;;;;5022514;28;20049;-76
2024/03/28 14:11:02;;;;;;;6.50;1.55;;;;;;;;;;5020151;28;20543;-73
2024/03/28 14:13:30;;;;;;;5.00;1.90;;;;;;;;;;5020072;28;20052;-75
2024/03/28 14:15:59;;;;;;;3.10;1.60;;;;;;;;;;5004043;28;20392;-75
2024/03/28 14:18:28;;;;;;;2.70;1.40;;;;;;;;;;5020231;28;20056;-74
2024/03/28 14:20:56;;;;;;;5.40;1.63;;;;;;;;;;5020305;28;20042;-76
2024/03/28 14:23:25;;;;;;;5.55;1.90;;;;;;;;;;5020922;28;20431;-75
2024/03/28 14:26:05;;;;;;;2.85;1.67;;;;;;;;;;5021608;28;20056;-75
2024/03/28 14:28:34;;;;;;;4.72;1.52;;;;;;;;;;5020588;28;20042;-73
2024/03/28 14:31:06;;;;;;;3.30;1.40;;;;;;;;;;5020348;28;20056;-77
2024/03/28 14:33:35;;;;;;;5.18;1.70;;;;;;;;;;5020158;28;20056;-76
2024/03/28 14:36:09;;;;;;;5.38;1.33;;;;;;;;;;5019727;28;20065;-74
2024/03/28 14:38:39;;;;;;;7.03;1.58;;;;;;;;;;5020624;28;20049;-75
2024/03/28 14:41:09;;;;;;;5.32;1.88;;;;;;;;;;5020294;28;20050;-74
2024/03/28 14:43:43;;;;;;;2.13;1.33;;;;;;;;;;5019822;28;20633;-74
2024/03/28 14:46:16;;;;;;;2.10;1.50;;;;;;;;;;5020027;28;20064;-76
2024/03/28 14:48:45;;;;;;;6.00;1.38;;;;;;;;;;5020615;28;20037;-75
2024/03/28 14:51:13;;;;;;;6.03;1.85;;;;;;;;;;5007683;28;20064;-75
2024/03/28 14:53:42;;;;;;;3.60;1.50;;;;;;;;;;5023905;28;20053;-76
2024/03/28 14:56:10;;;;;;;4.05;1.40;;;;;;;;;;5024032;28;20057;-72
2024/03/28 14:58:38;;;;;;;6.40;1.70;;;;;;;;;;5007509;28;20077;-75
2024/03/28 15:01:15;;;;;;;3.22;1.70;;;;;;;;;;5023611;28;20068;-75
2024/03/28 15:03:46;;;;;;;3.35;1.67;;;;;;;;;;5023687;28;20041;-86
2024/03/28 15:06:17;;;;;;;5.43;1.52;;;;;;;;;;5023580;28;20049;-75